sensor_id;sensor_type;location;lat;lon;timestamp;temperature;humidity
14755;DHT22;7469;50.906;6.952;2022-07-24T00:00:42;18.90;99.90
14755;DHT22;7469;50.906;6.952;2022-07-24T00:03:10;18.90;99.90
14755;DHT22;7469;50.906;6.952;2022-07-24T00:05:39;18.90;99.90
14755;DHT22;7469;50.906;6.952;2022-07-24T00:08:07;18.80;99.90
14755;DHT22;7469;50.906;6.952;2022-07-24T00:10:35;18.90;99.90
14755;DHT22;7469;50.906;6.952;2022-07-24T00:13:04;18.80;99.90
14755;DHT22;7469;50.906;6.952;2022-07-24T00:15:32;18.80;99.90
14755;DHT22;7469;50.906;6.952;2022-07-24T00:18:02;18.80;99.90
14755;DHT22;7469;50.906;6.952;2022-07-24T00:20:30;18.70;99.90
14755;DHT22;7469;50.906;6.952;2022-07-24T00:22:58;18.70;99.90
14755;DHT22;7469;50.906;6.952;2022-07-24T00:25:26;18.70;99.90
14755;DHT22;7469;50.906;6.952;2022-07-24T00:27:54;18.70;99.90
14755;DHT22;7469;50.906;6.952;2022-07-24T00:30:22;18.60;99.90
14755;DHT22;7469;50.906;6.952;2022-07-24T00:32:50;18.60;99.90
14755;DHT22;7469;50.906;6.952;2022-07-24T00:35:20;18.70;99.90
14755;DHT22;7469;50.906;6.952;2022-07-24T00:37:48;18.60;99.90
14755;DHT22;7469;50.906;6.952;2022-07-24T00:40:16;18.60;99.90
14755;DHT22;7469;50.906;6.952;2022-07-24T00:42:44;18.50;99.90
14755;DHT22;7469;50.906;6.952;2022-07-24T00:45:12;18.50;99.90
14755;DHT22;7469;50.906;6.952;2022-07-24T00:47:50;18.50;99.90
14755;DHT22;7469;50.906;6.952;2022-07-24T00:50:25;18.50;99.90
14755;DHT22;7469;50.906;6.952;2022-07-24T00:52:53;18.50;99.90
14755;DHT22;7469;50.906;6.952;2022-07-24T00:55:23;18.40;99.90
14755;DHT22;7469;50.906;6.952;2022-07-24T00:57:51;18.40;99.90
14755;DHT22;7469;50.906;6.952;2022-07-24T01:00:21;18.50;99.90
14755;DHT22;7469;50.906;6.952;2022-07-24T01:02:50;18.40;99.90
14755;DHT22;7469;50.906;6.952;2022-07-24T01:05:18;18.40;99.90
14755;DHT22;7469;50.906;6.952;2022-07-24T01:07:49;18.30;99.90
14755;DHT22;7469;50.906;6.952;2022-07-24T01:10:17;18.30;99.90
14755;DHT22;7469;50.906;6.952;2022-07-24T01:12:45;18.30;99.90
14755;DHT22;7469;50.906;6.952;2022-07-24T01:15:14;18.30;99.90
14755;DHT22;7469;50.906;6.952;2022-07-24T01:17:42;18.20;99.90
14755;DHT22;7469;50.906;6.952;2022-07-24T01:20:10;18.20;99.90
14755;DHT22;7469;50.906;6.952;2022-07-24T01:22:40;18.20;99.90
14755;DHT22;7469;50.906;6.952;2022-07-24T01:25:08;18.20;99.90
14755;DHT22;7469;50.906;6.952;2022-07-24T01:27:38;18.10;99.90
14755;DHT22;7469;50.906;6.952;2022-07-24T01:30:07;18.10;99.90
14755;DHT22;7469;50.906;6.952;2022-07-24T01:32:35;18.10;99.90
14755;DHT22;7469;50.906;6.952;2022-07-24T01:35:04;18.00;99.90
14755;DHT22;7469;50.906;6.952;2022-07-24T01:37:33;18.00;99.90
14755;DHT22;7469;50.906;6.952;2022-07-24T01:40:03;18.00;99.90
14755;DHT22;7469;50.906;6.952;2022-07-24T01:42:31;18.00;99.90
14755;DHT22;7469;50.906;6.952;2022-07-24T01:44:59;18.00;99.90
14755;DHT22;7469;50.906;6.952;2022-07-24T01:47:28;17.90;99.90
14755;DHT22;7469;50.906;6.952;2022-07-24T01:49:56;17.90;99.90
14755;DHT22;7469;50.906;6.952;2022-07-24T01:52:24;17.90;99.90
14755;DHT22;7469;50.906;6.952;2022-07-24T01:54:53;17.90;99.90
14755;DHT22;7469;50.906;6.952;2022-07-24T01:57:22;17.90;99.90
14755;DHT22;7469;50.906;6.952;2022-07-24T01:59:55;17.80;99.90
14755;DHT22;7469;50.906;6.952;2022-07-24T02:02:24;17.80;99.90
14755;DHT22;7469;50.906;6.952;2022-07-24T02:04:53;17.70;99.90
14755;DHT22;7469;50.906;6.952;2022-07-24T02:07:21;17.70;99.90
14755;DHT22;7469;50.906;6.952;2022-07-24T02:09:50;17.70;99.90
14755;DHT22;7469;50.906;6.952;2022-07-24T02:12:17;17.70;99.90
14755;DHT22;7469;50.906;6.952;2022-07-24T02:14:47;17.70;99.90
14755;DHT22;7469;50.906;6.952;2022-07-24T02:17:15;17.60;99.90
14755;DHT22;7469;50.906;6.952;2022-07-24T02:19:43;17.60;99.90
14755;DHT22;7469;50.906;6.952;2022-07-24T02:22:11;17.60;99.90
14755;DHT22;7469;50.906;6.952;2022-07-24T02:24:39;17.60;99.90
14755;DHT22;7469;50.906;6.952;2022-07-24T02:27:07;17.60;99.90
14755;DHT22;7469;50.906;6.952;2022-07-24T02:29:35;17.50;99.90
14755;DHT22;7469;50.906;6.952;2022-07-24T02:32:05;17.50;99.90
14755;DHT22;7469;50.906;6.952;2022-07-24T02:34:34;17.50;99.90
14755;DHT22;7469;50.906;6.952;2022-07-24T02:37:02;17.50;99.90
14755;DHT22;7469;50.906;6.952;2022-07-24T02:39:30;17.50;99.90
14755;DHT22;7469;50.906;6.952;2022-07-24T02:41:58;17.40;99.90
14755;DHT22;7469;50.906;6.952;2022-07-24T02:44:26;17.50;99.90
14755;DHT22;7469;50.906;6.952;2022-07-24T02:46:54;17.40;99.90
14755;DHT22;7469;50.906;6.952;2022-07-24T02:49:23;17.30;99.90
14755;DHT22;7469;50.906;6.952;2022-07-24T02:51:51;17.30;99.90
14755;DHT22;7469;50.906;6.952;2022-07-24T02:54:19;17.30;99.90
14755;DHT22;7469;50.906;6.952;2022-07-24T02:56:47;17.30;99.90
14755;DHT22;7469;50.906;6.952;2022-07-24T02:59:16;17.20;99.90
14755;DHT22;7469;50.906;6.952;2022-07-24T03:01:44;17.20;99.90
14755;DHT22;7469;50.906;6.952;2022-07-24T03:04:12;17.20;99.90
14755;DHT22;7469;50.906;6.952;2022-07-24T03:06:41;17.10;99.90
14755;DHT22;7469;50.906;6.952;2022-07-24T03:09:09;17.10;99.90
14755;DHT22;7469;50.906;6.952;2022-07-24T03:11:37;17.10;99.90
14755;DHT22;7469;50.906;6.952;2022-07-24T03:14:05;17.10;99.90
14755;DHT22;7469;50.906;6.952;2022-07-24T03:16:33;17.00;99.90
14755;DHT22;7469;50.906;6.952;2022-07-24T03:19:05;17.00;99.90
14755;DHT22;7469;50.906;6.952;2022-07-24T03:21:34;17.00;99.90
14755;DHT22;7469;50.906;6.952;2022-07-24T03:24:15;17.00;99.90
14755;DHT22;7469;50.906;6.952;2022-07-24T03:26:43;17.00;99.90
14755;DHT22;7469;50.906;6.952;2022-07-24T03:29:12;17.00;99.90
14755;DHT22;7469;50.906;6.952;2022-07-24T03:31:40;16.90;99.90
14755;DHT22;7469;50.906;6.952;2022-07-24T03:34:08;16.90;99.90
14755;DHT22;7469;50.906;6.952;2022-07-24T03:36:36;16.90;99.90
14755;DHT22;7469;50.906;6.952;2022-07-24T03:39:04;17.00;99.90
14755;DHT22;7469;50.906;6.952;2022-07-24T03:41:35;16.90;99.90
14755;DHT22;7469;50.906;6.952;2022-07-24T03:44:03;16.90;99.90
14755;DHT22;7469;50.906;6.952;2022-07-24T03:46:31;16.90;99.90
14755;DHT22;7469;50.906;6.952;2022-07-24T03:48:59;16.90;99.90
14755;DHT22;7469;50.906;6.952;2022-07-24T03:51:28;16.90;99.90
14755;DHT22;7469;50.906;6.952;2022-07-24T03:53:57;16.90;99.90
14755;DHT22;7469;50.906;6.952;2022-07-24T03:56:25;16.90;99.90
14755;DHT22;7469;50.906;6.952;2022-07-24T03:58:55;16.90;99.90
14755;DHT22;7469;50.906;6.952;2022-07-24T04:01:23;16.90;99.90
14755;DHT22;7469;50.906;6.952;2022-07-24T04:03:51;16.90;99.90
14755;DHT22;7469;50.906;6.952;2022-07-24T04:06:19;16.80;99.90
14755;DHT22;7469;50.906;6.952;2022-07-24T04:08:47;16.90;99.90
14755;DHT22;7469;50.906;6.952;2022-07-24T04:11:15;16.90;99.90
14755;DHT22;7469;50.906;6.952;2022-07-24T04:13:43;17.00;99.90
14755;DHT22;7469;50.906;6.952;2022-07-24T04:16:13;17.00;99.90
14755;DHT22;7469;50.906;6.952;2022-07-24T04:18:41;17.00;99.90
14755;DHT22;7469;50.906;6.952;2022-07-24T04:21:09;17.10;99.90
14755;DHT22;7469;50.906;6.952;2022-07-24T04:23:38;17.10;99.90
14755;DHT22;7469;50.906;6.952;2022-07-24T04:26:06;17.10;99.90
14755;DHT22;7469;50.906;6.952;2022-07-24T04:28:34;17.20;99.90
14755;DHT22;7469;50.906;6.952;2022-07-24T04:31:03;17.20;99.90
14755;DHT22;7469;50.906;6.952;2022-07-24T04:33:32;17.20;99.90
14755;DHT22;7469;50.906;6.952;2022-07-24T04:36:00;17.20;99.90
14755;DHT22;7469;50.906;6.952;2022-07-24T04:38:28;17.30;99.90
14755;DHT22;7469;50.906;6.952;2022-07-24T04:40:57;17.30;99.90
14755;DHT22;7469;50.906;6.952;2022-07-24T04:43:25;17.30;99.90
14755;DHT22;7469;50.906;6.952;2022-07-24T04:45:53;17.40;99.90
14755;DHT22;7469;50.906;6.952;2022-07-24T04:48:21;17.40;99.90
14755;DHT22;7469;50.906;6.952;2022-07-24T04:50:50;17.40;99.90
14755;DHT22;7469;50.906;6.952;2022-07-24T04:53:18;17.50;99.90
14755;DHT22;7469;50.906;6.952;2022-07-24T04:55:46;17.50;99.90
14755;DHT22;7469;50.906;6.952;2022-07-24T04:58:14;17.60;99.90
14755;DHT22;7469;50.906;6.952;2022-07-24T05:00:42;17.60;99.90
14755;DHT22;7469;50.906;6.952;2022-07-24T05:03:11;17.70;99.90
14755;DHT22;7469;50.906;6.952;2022-07-24T05:05:39;17.80;99.90
14755;DHT22;7469;50.906;6.952;2022-07-24T05:08:08;17.80;99.90
14755;DHT22;7469;50.906;6.952;2022-07-24T05:10:36;17.90;99.90
14755;DHT22;7469;50.906;6.952;2022-07-24T05:13:04;18.00;99.90
14755;DHT22;7469;50.906;6.952;2022-07-24T05:15:32;18.00;99.90
14755;DHT22;7469;50.906;6.952;2022-07-24T05:18:00;18.10;99.90
14755;DHT22;7469;50.906;6.952;2022-07-24T05:20:28;18.10;99.90
14755;DHT22;7469;50.906;6.952;2022-07-24T05:22:56;18.20;99.90
14755;DHT22;7469;50.906;6.952;2022-07-24T05:25:26;18.30;99.90
14755;DHT22;7469;50.906;6.952;2022-07-24T05:27:54;18.40;99.90
14755;DHT22;7469;50.906;6.952;2022-07-24T05:30:22;18.50;99.90
14755;DHT22;7469;50.906;6.952;2022-07-24T05:32:50;18.50;99.90
14755;DHT22;7469;50.906;6.952;2022-07-24T05:35:18;18.70;99.90
14755;DHT22;7469;50.906;6.952;2022-07-24T05:37:55;18.70;99.90
14755;DHT22;7469;50.906;6.952;2022-07-24T05:40:23;18.70;99.90
14755;DHT22;7469;50.906;6.952;2022-07-24T05:42:53;18.70;99.90
14755;DHT22;7469;50.906;6.952;2022-07-24T05:45:21;18.80;99.90
14755;DHT22;7469;50.906;6.952;2022-07-24T05:47:49;18.90;99.90
14755;DHT22;7469;50.906;6.952;2022-07-24T05:50:17;19.00;99.90
14755;DHT22;7469;50.906;6.952;2022-07-24T05:52:45;19.00;99.90
14755;DHT22;7469;50.906;6.952;2022-07-24T05:55:13;19.10;99.90
14755;DHT22;7469;50.906;6.952;2022-07-24T05:57:43;19.10;99.90
14755;DHT22;7469;50.906;6.952;2022-07-24T06:00:14;19.20;99.90
14755;DHT22;7469;50.906;6.952;2022-07-24T06:02:49;19.20;99.90
14755;DHT22;7469;50.906;6.952;2022-07-24T06:05:17;19.20;99.90
14755;DHT22;7469;50.906;6.952;2022-07-24T06:07:45;19.20;99.90
14755;DHT22;7469;50.906;6.952;2022-07-24T06:10:13;19.20;99.90
14755;DHT22;7469;50.906;6.952;2022-07-24T06:12:42;19.20;99.90
14755;DHT22;7469;50.906;6.952;2022-07-24T06:15:10;19.30;99.90
14755;DHT22;7469;50.906;6.952;2022-07-24T06:17:40;19.40;99.90
14755;DHT22;7469;50.906;6.952;2022-07-24T06:20:10;19.50;99.90
14755;DHT22;7469;50.906;6.952;2022-07-24T06:22:40;19.50;99.90
14755;DHT22;7469;50.906;6.952;2022-07-24T06:25:14;19.50;99.90
14755;DHT22;7469;50.906;6.952;2022-07-24T06:27:44;19.60;99.90
14755;DHT22;7469;50.906;6.952;2022-07-24T06:30:13;19.60;99.90
14755;DHT22;7469;50.906;6.952;2022-07-24T06:32:43;19.70;99.90
14755;DHT22;7469;50.906;6.952;2022-07-24T06:35:12;19.80;99.90
14755;DHT22;7469;50.906;6.952;2022-07-24T06:37:40;19.90;99.90
14755;DHT22;7469;50.906;6.952;2022-07-24T06:40:13;19.90;99.90
14755;DHT22;7469;50.906;6.952;2022-07-24T06:42:41;20.00;99.90
14755;DHT22;7469;50.906;6.952;2022-07-24T06:45:10;20.10;99.90
14755;DHT22;7469;50.906;6.952;2022-07-24T06:47:38;20.20;99.90
14755;DHT22;7469;50.906;6.952;2022-07-24T06:50:08;20.30;99.90
14755;DHT22;7469;50.906;6.952;2022-07-24T06:52:37;20.40;99.90
14755;DHT22;7469;50.906;6.952;2022-07-24T06:55:06;20.60;99.90
14755;DHT22;7469;50.906;6.952;2022-07-24T06:57:35;20.80;99.90
14755;DHT22;7469;50.906;6.952;2022-07-24T07:00:05;20.80;99.90
14755;DHT22;7469;50.906;6.952;2022-07-24T07:02:33;20.90;99.90
14755;DHT22;7469;50.906;6.952;2022-07-24T07:05:02;21.10;99.90
14755;DHT22;7469;50.906;6.952;2022-07-24T07:07:32;21.20;99.90
14755;DHT22;7469;50.906;6.952;2022-07-24T07:10:00;21.30;99.90
14755;DHT22;7469;50.906;6.952;2022-07-24T07:12:28;21.40;99.90
14755;DHT22;7469;50.906;6.952;2022-07-24T07:14:59;21.40;99.90
14755;DHT22;7469;50.906;6.952;2022-07-24T07:17:27;21.50;99.90
14755;DHT22;7469;50.906;6.952;2022-07-24T07:19:55;21.70;99.90
14755;DHT22;7469;50.906;6.952;2022-07-24T07:22:24;21.80;99.90
14755;DHT22;7469;50.906;6.952;2022-07-24T07:24:53;21.90;99.90
14755;DHT22;7469;50.906;6.952;2022-07-24T07:27:21;22.10;99.90
14755;DHT22;7469;50.906;6.952;2022-07-24T07:29:49;22.20;99.90
14755;DHT22;7469;50.906;6.952;2022-07-24T07:32:17;22.30;99.90
14755;DHT22;7469;50.906;6.952;2022-07-24T07:34:45;22.40;99.90
14755;DHT22;7469;50.906;6.952;2022-07-24T07:37:14;22.50;99.90
14755;DHT22;7469;50.906;6.952;2022-07-24T07:39:42;22.60;99.90
14755;DHT22;7469;50.906;6.952;2022-07-24T07:42:11;22.70;99.90
14755;DHT22;7469;50.906;6.952;2022-07-24T07:44:40;22.80;99.90
14755;DHT22;7469;50.906;6.952;2022-07-24T07:47:08;23.00;99.90
14755;DHT22;7469;50.906;6.952;2022-07-24T07:49:36;23.10;99.90
14755;DHT22;7469;50.906;6.952;2022-07-24T07:52:05;23.20;99.90
14755;DHT22;7469;50.906;6.952;2022-07-24T07:54:33;23.30;99.90
14755;DHT22;7469;50.906;6.952;2022-07-24T07:57:01;23.50;99.90
14755;DHT22;7469;50.906;6.952;2022-07-24T07:59:30;23.60;99.90
14755;DHT22;7469;50.906;6.952;2022-07-24T08:01:58;23.70;99.90
14755;DHT22;7469;50.906;6.952;2022-07-24T08:04:26;23.80;99.90
14755;DHT22;7469;50.906;6.952;2022-07-24T08:06:54;24.00;99.90
14755;DHT22;7469;50.906;6.952;2022-07-24T08:09:22;24.00;99.90
14755;DHT22;7469;50.906;6.952;2022-07-24T08:11:50;24.20;99.90
14755;DHT22;7469;50.906;6.952;2022-07-24T08:14:18;24.20;99.90
14755;DHT22;7469;50.906;6.952;2022-07-24T08:16:48;24.30;99.90
14755;DHT22;7469;50.906;6.952;2022-07-24T08:19:16;24.40;99.90
14755;DHT22;7469;50.906;6.952;2022-07-24T08:21:44;24.50;99.90
14755;DHT22;7469;50.906;6.952;2022-07-24T08:24:13;24.70;99.90
14755;DHT22;7469;50.906;6.952;2022-07-24T08:26:47;24.80;99.90
14755;DHT22;7469;50.906;6.952;2022-07-24T08:29:15;24.90;99.90
14755;DHT22;7469;50.906;6.952;2022-07-24T08:31:43;25.00;99.90
14755;DHT22;7469;50.906;6.952;2022-07-24T08:34:12;25.10;99.90
14755;DHT22;7469;50.906;6.952;2022-07-24T08:36:40;25.20;99.90
14755;DHT22;7469;50.906;6.952;2022-07-24T08:39:12;25.30;99.90
14755;DHT22;7469;50.906;6.952;2022-07-24T08:41:41;25.50;99.90
14755;DHT22;7469;50.906;6.952;2022-07-24T08:44:09;25.60;99.90
14755;DHT22;7469;50.906;6.952;2022-07-24T08:46:38;25.70;99.90
14755;DHT22;7469;50.906;6.952;2022-07-24T08:49:07;25.90;99.90
14755;DHT22;7469;50.906;6.952;2022-07-24T08:51:39;26.00;99.90
14755;DHT22;7469;50.906;6.952;2022-07-24T08:54:09;26.20;99.90
14755;DHT22;7469;50.906;6.952;2022-07-24T08:56:39;26.40;99.90
14755;DHT22;7469;50.906;6.952;2022-07-24T08:59:16;26.80;99.90
14755;DHT22;7469;50.906;6.952;2022-07-24T09:01:52;27.30;99.90
14755;DHT22;7469;50.906;6.952;2022-07-24T09:04:37;28.00;98.90
14755;DHT22;7469;50.906;6.952;2022-07-24T09:07:08;28.80;97.20
14755;DHT22;7469;50.906;6.952;2022-07-24T09:09:37;29.50;95.30
14755;DHT22;7469;50.906;6.952;2022-07-24T09:12:07;30.10;93.10
14755;DHT22;7469;50.906;6.952;2022-07-24T09:14:38;30.90;90.90
14755;DHT22;7469;50.906;6.952;2022-07-24T09:17:09;32.00;86.20
14755;DHT22;7469;50.906;6.952;2022-07-24T09:19:49;34.00;72.20
14755;DHT22;7469;50.906;6.952;2022-07-24T09:22:26;36.60;58.90
14755;DHT22;7469;50.906;6.952;2022-07-24T09:25:07;38.70;47.60
14755;DHT22;7469;50.906;6.952;2022-07-24T09:27:37;40.60;39.60
14755;DHT22;7469;50.906;6.952;2022-07-24T09:30:07;42.00;32.90
14755;DHT22;7469;50.906;6.952;2022-07-24T09:32:38;43.30;29.10
14755;DHT22;7469;50.906;6.952;2022-07-24T09:35:08;44.40;26.80
14755;DHT22;7469;50.906;6.952;2022-07-24T09:37:39;45.60;24.70
14755;DHT22;7469;50.906;6.952;2022-07-24T09:40:08;46.40;23.40
14755;DHT22;7469;50.906;6.952;2022-07-24T09:42:37;47.50;21.90
14755;DHT22;7469;50.906;6.952;2022-07-24T09:45:09;48.50;20.70
14755;DHT22;7469;50.906;6.952;2022-07-24T09:47:39;49.20;19.00
14755;DHT22;7469;50.906;6.952;2022-07-24T09:50:15;49.50;18.00
14755;DHT22;7469;50.906;6.952;2022-07-24T09:52:46;49.60;17.20
14755;DHT22;7469;50.906;6.952;2022-07-24T09:55:23;49.90;16.90
14755;DHT22;7469;50.906;6.952;2022-07-24T09:57:52;50.30;16.30
14755;DHT22;7469;50.906;6.952;2022-07-24T10:00:20;50.90;15.90
14755;DHT22;7469;50.906;6.952;2022-07-24T10:02:49;51.40;15.30
14755;DHT22;7469;50.906;6.952;2022-07-24T10:05:20;51.80;14.60
14755;DHT22;7469;50.906;6.952;2022-07-24T10:07:55;51.80;14.40
14755;DHT22;7469;50.906;6.952;2022-07-24T10:10:27;51.90;14.20
14755;DHT22;7469;50.906;6.952;2022-07-24T10:12:56;51.40;13.70
14755;DHT22;7469;50.906;6.952;2022-07-24T10:15:29;51.60;13.90
14755;DHT22;7469;50.906;6.952;2022-07-24T10:18:19;51.40;14.00
14755;DHT22;7469;50.906;6.952;2022-07-24T10:20:48;51.30;14.10
14755;DHT22;7469;50.906;6.952;2022-07-24T10:23:28;50.80;13.50
14755;DHT22;7469;50.906;6.952;2022-07-24T10:26:05;50.90;13.70
14755;DHT22;7469;50.906;6.952;2022-07-24T10:28:38;50.50;13.30
14755;DHT22;7469;50.906;6.952;2022-07-24T10:31:08;50.50;13.60
14755;DHT22;7469;50.906;6.952;2022-07-24T10:33:38;50.40;13.50
14755;DHT22;7469;50.906;6.952;2022-07-24T10:36:16;50.20;13.40
14755;DHT22;7469;50.906;6.952;2022-07-24T10:38:51;50.10;13.70
14755;DHT22;7469;50.906;6.952;2022-07-24T10:41:24;50.10;13.60
14755;DHT22;7469;50.906;6.952;2022-07-24T10:44:13;49.80;13.80
14755;DHT22;7469;50.906;6.952;2022-07-24T10:46:58;49.20;13.90
14755;DHT22;7469;50.906;6.952;2022-07-24T10:49:43;47.80;14.20
14755;DHT22;7469;50.906;6.952;2022-07-24T10:52:21;47.10;14.90
14755;DHT22;7469;50.906;6.952;2022-07-24T10:55:23;47.50;14.70
14755;DHT22;7469;50.906;6.952;2022-07-24T10:58:03;47.20;14.80
14755;DHT22;7469;50.906;6.952;2022-07-24T11:00:34;47.40;15.00
14755;DHT22;7469;50.906;6.952;2022-07-24T11:03:08;47.80;14.70
14755;DHT22;7469;50.906;6.952;2022-07-24T11:08:24;47.90;14.60
14755;DHT22;7469;50.906;6.952;2022-07-24T11:10:59;47.00;14.80
14755;DHT22;7469;50.906;6.952;2022-07-24T11:16:25;43.70;16.70
14755;DHT22;7469;50.906;6.952;2022-07-24T11:19:25;42.80;17.60
14755;DHT22;7469;50.906;6.952;2022-07-24T11:22:10;41.60;18.50
14755;DHT22;7469;50.906;6.952;2022-07-24T11:27:25;40.00;19.60
14755;DHT22;7469;50.906;6.952;2022-07-24T11:29:53;39.40;20.60
14755;DHT22;7469;50.906;6.952;2022-07-24T11:32:21;38.80;21.00
14755;DHT22;7469;50.906;6.952;2022-07-24T11:34:51;37.90;21.60
14755;DHT22;7469;50.906;6.952;2022-07-24T11:37:19;37.10;22.00
14755;DHT22;7469;50.906;6.952;2022-07-24T11:39:52;36.40;23.60
14755;DHT22;7469;50.906;6.952;2022-07-24T11:42:20;35.80;23.30
14755;DHT22;7469;50.906;6.952;2022-07-24T11:44:49;35.40;23.90
14755;DHT22;7469;50.906;6.952;2022-07-24T11:47:20;35.00;24.70
14755;DHT22;7469;50.906;6.952;2022-07-24T11:49:51;34.40;25.30
14755;DHT22;7469;50.906;6.952;2022-07-24T11:52:22;33.80;26.20
14755;DHT22;7469;50.906;6.952;2022-07-24T11:54:53;33.40;26.50
14755;DHT22;7469;50.906;6.952;2022-07-24T11:57:24;33.10;26.80
14755;DHT22;7469;50.906;6.952;2022-07-24T12:00:16;33.00;26.90
14755;DHT22;7469;50.906;6.952;2022-07-24T12:02:45;32.80;26.90
14755;DHT22;7469;50.906;6.952;2022-07-24T12:05:23;32.70;27.20
14755;DHT22;7469;50.906;6.952;2022-07-24T12:07:51;32.50;27.60
14755;DHT22;7469;50.906;6.952;2022-07-24T12:10:21;32.30;28.30
14755;DHT22;7469;50.906;6.952;2022-07-24T12:12:51;32.00;28.20
14755;DHT22;7469;50.906;6.952;2022-07-24T12:15:23;31.90;28.40
14755;DHT22;7469;50.906;6.952;2022-07-24T12:17:59;31.90;28.90
14755;DHT22;7469;50.906;6.952;2022-07-24T12:20:29;31.70;29.40
14755;DHT22;7469;50.906;6.952;2022-07-24T12:22:58;31.70;29.70
14755;DHT22;7469;50.906;6.952;2022-07-24T12:25:27;31.70;29.20
14755;DHT22;7469;50.906;6.952;2022-07-24T12:28:04;31.70;29.00
14755;DHT22;7469;50.906;6.952;2022-07-24T12:30:35;31.70;29.00
14755;DHT22;7469;50.906;6.952;2022-07-24T12:33:05;31.70;29.20
14755;DHT22;7469;50.906;6.952;2022-07-24T12:38:23;31.90;29.50
14755;DHT22;7469;50.906;6.952;2022-07-24T12:40:51;32.10;29.30
14755;DHT22;7469;50.906;6.952;2022-07-24T12:43:19;32.20;29.20
14755;DHT22;7469;50.906;6.952;2022-07-24T12:46:04;32.30;28.70
14755;DHT22;7469;50.906;6.952;2022-07-24T12:48:32;32.30;28.80
14755;DHT22;7469;50.906;6.952;2022-07-24T12:51:06;32.50;28.80
14755;DHT22;7469;50.906;6.952;2022-07-24T12:53:37;32.50;28.40
14755;DHT22;7469;50.906;6.952;2022-07-24T12:56:11;32.50;28.10
14755;DHT22;7469;50.906;6.952;2022-07-24T12:58:57;32.50;28.00
14755;DHT22;7469;50.906;6.952;2022-07-24T13:01:42;32.50;27.90
14755;DHT22;7469;50.906;6.952;2022-07-24T13:04:11;32.40;28.00
14755;DHT22;7469;50.906;6.952;2022-07-24T13:06:40;32.60;28.30
14755;DHT22;7469;50.906;6.952;2022-07-24T13:09:10;32.70;28.10
14755;DHT22;7469;50.906;6.952;2022-07-24T13:11:39;32.90;28.00
14755;DHT22;7469;50.906;6.952;2022-07-24T13:14:09;33.00;27.70
14755;DHT22;7469;50.906;6.952;2022-07-24T13:16:40;33.10;27.60
14755;DHT22;7469;50.906;6.952;2022-07-24T13:19:09;33.20;27.30
14755;DHT22;7469;50.906;6.952;2022-07-24T13:21:38;33.30;26.90
14755;DHT22;7469;50.906;6.952;2022-07-24T13:24:07;33.40;26.80
14755;DHT22;7469;50.906;6.952;2022-07-24T13:26:37;33.60;27.10
14755;DHT22;7469;50.906;6.952;2022-07-24T13:29:06;33.80;26.70
14755;DHT22;7469;50.906;6.952;2022-07-24T13:31:34;33.90;26.30
14755;DHT22;7469;50.906;6.952;2022-07-24T13:34:03;33.80;26.40
14755;DHT22;7469;50.906;6.952;2022-07-24T13:36:33;33.90;26.20
14755;DHT22;7469;50.906;6.952;2022-07-24T13:39:04;33.80;25.90
14755;DHT22;7469;50.906;6.952;2022-07-24T13:41:32;33.90;25.90
14755;DHT22;7469;50.906;6.952;2022-07-24T13:44:00;34.10;25.90
14755;DHT22;7469;50.906;6.952;2022-07-24T13:46:30;34.40;26.10
14755;DHT22;7469;50.906;6.952;2022-07-24T13:48:59;34.60;25.60
14755;DHT22;7469;50.906;6.952;2022-07-24T13:51:29;34.80;25.50
14755;DHT22;7469;50.906;6.952;2022-07-24T13:53:57;34.90;25.00
14755;DHT22;7469;50.906;6.952;2022-07-24T13:56:26;34.80;24.80
14755;DHT22;7469;50.906;6.952;2022-07-24T13:58:56;34.80;25.00
14755;DHT22;7469;50.906;6.952;2022-07-24T14:01:25;34.70;24.60
14755;DHT22;7469;50.906;6.952;2022-07-24T14:04:04;34.70;24.80
14755;DHT22;7469;50.906;6.952;2022-07-24T14:06:56;34.70;24.80
14755;DHT22;7469;50.906;6.952;2022-07-24T14:09:24;34.80;24.60
14755;DHT22;7469;50.906;6.952;2022-07-24T14:11:53;35.00;24.50
14755;DHT22;7469;50.906;6.952;2022-07-24T14:14:21;35.30;24.50
14755;DHT22;7469;50.906;6.952;2022-07-24T14:16:49;35.40;23.70
14755;DHT22;7469;50.906;6.952;2022-07-24T14:19:18;35.50;23.80
14755;DHT22;7469;50.906;6.952;2022-07-24T14:21:46;35.60;24.30
14755;DHT22;7469;50.906;6.952;2022-07-24T14:24:17;35.70;23.40
14755;DHT22;7469;50.906;6.952;2022-07-24T14:26:48;35.60;23.20
14755;DHT22;7469;50.906;6.952;2022-07-24T14:29:16;35.60;23.30
14755;DHT22;7469;50.906;6.952;2022-07-24T14:31:44;35.60;23.20
14755;DHT22;7469;50.906;6.952;2022-07-24T14:34:13;35.70;23.20
14755;DHT22;7469;50.906;6.952;2022-07-24T14:36:41;36.00;23.10
14755;DHT22;7469;50.906;6.952;2022-07-24T14:39:09;36.10;23.30
14755;DHT22;7469;50.906;6.952;2022-07-24T14:41:39;36.20;23.00
14755;DHT22;7469;50.906;6.952;2022-07-24T14:44:07;36.40;23.00
14755;DHT22;7469;50.906;6.952;2022-07-24T14:46:36;36.60;22.70
14755;DHT22;7469;50.906;6.952;2022-07-24T14:49:05;36.50;22.30
14755;DHT22;7469;50.906;6.952;2022-07-24T14:51:33;36.60;22.40
14755;DHT22;7469;50.906;6.952;2022-07-24T14:54:01;36.70;23.00
14755;DHT22;7469;50.906;6.952;2022-07-24T14:56:30;36.70;22.30
14755;DHT22;7469;50.906;6.952;2022-07-24T14:58:59;36.70;22.60
14755;DHT22;7469;50.906;6.952;2022-07-24T15:01:27;36.60;22.30
14755;DHT22;7469;50.906;6.952;2022-07-24T15:04:03;36.60;22.60
14755;DHT22;7469;50.906;6.952;2022-07-24T15:06:31;36.70;22.50
14755;DHT22;7469;50.906;6.952;2022-07-24T15:08:59;36.70;22.30
14755;DHT22;7469;50.906;6.952;2022-07-24T15:11:27;36.70;22.50
14755;DHT22;7469;50.906;6.952;2022-07-24T15:13:55;36.70;22.40
14755;DHT22;7469;50.906;6.952;2022-07-24T15:16:24;36.70;22.30
14755;DHT22;7469;50.906;6.952;2022-07-24T15:18:52;36.60;22.40
14755;DHT22;7469;50.906;6.952;2022-07-24T15:21:20;36.50;22.60
14755;DHT22;7469;50.906;6.952;2022-07-24T15:23:48;36.60;22.80
14755;DHT22;7469;50.906;6.952;2022-07-24T15:26:16;36.60;22.80
14755;DHT22;7469;50.906;6.952;2022-07-24T15:28:44;36.50;22.70
14755;DHT22;7469;50.906;6.952;2022-07-24T15:31:12;36.40;22.70
14755;DHT22;7469;50.906;6.952;2022-07-24T15:33:45;36.30;22.60
14755;DHT22;7469;50.906;6.952;2022-07-24T15:36:13;36.20;22.60
14755;DHT22;7469;50.906;6.952;2022-07-24T15:38:41;36.10;22.90
14755;DHT22;7469;50.906;6.952;2022-07-24T15:41:09;36.00;23.10
14755;DHT22;7469;50.906;6.952;2022-07-24T15:43:37;36.00;23.20
14755;DHT22;7469;50.906;6.952;2022-07-24T15:46:05;36.00;23.00
14755;DHT22;7469;50.906;6.952;2022-07-24T15:48:34;36.00;22.80
14755;DHT22;7469;50.906;6.952;2022-07-24T15:51:03;36.00;22.80
14755;DHT22;7469;50.906;6.952;2022-07-24T15:53:31;35.90;22.90
14755;DHT22;7469;50.906;6.952;2022-07-24T15:55:59;35.80;23.20
14755;DHT22;7469;50.906;6.952;2022-07-24T15:58:28;35.90;23.20
14755;DHT22;7469;50.906;6.952;2022-07-24T16:00:56;35.90;23.10
14755;DHT22;7469;50.906;6.952;2022-07-24T16:03:24;35.90;23.00
14755;DHT22;7469;50.906;6.952;2022-07-24T16:05:52;35.80;23.30
14755;DHT22;7469;50.906;6.952;2022-07-24T16:08:21;35.80;23.10
14755;DHT22;7469;50.906;6.952;2022-07-24T16:10:49;35.80;23.40
14755;DHT22;7469;50.906;6.952;2022-07-24T16:13:18;35.80;23.60